createdAt,value
2022-09-22T00:03:56.914Z,102131.19
2022-09-22T00:09:00.824Z,102137.25
2022-09-22T00:14:06.721Z,102120.31
2022-09-22T00:19:13.442Z,102125.34
2022-09-22T00:24:16.656Z,102124.06
2022-09-22T00:29:20.322Z,102117.72
2022-09-22T00:34:24.396Z,102108.59
2022-09-22T00:39:26.064Z,102116.00
2022-09-22T00:44:35.511Z,102109.44
2022-09-22T00:49:44.499Z,102109.19
2022-09-22T00:54:47.746Z,102107.25
2022-09-22T00:59:52.525Z,102108.72
2022-09-22T01:04:54.614Z,102103.84
2022-09-22T01:09:57.781Z,102099.25
2022-09-22T01:15:14.813Z,102097.25
2022-09-22T01:20:48.021Z,102096.09
2022-09-22T01:26:25.075Z,102098.28
2022-09-22T01:31:34.969Z,102096.22
2022-09-22T01:36:41.601Z,102097.03
2022-09-22T01:41:50.507Z,102095.00
2022-09-22T01:46:57.913Z,102090.22
2022-09-22T01:52:06.354Z,102096.03
2022-09-22T01:57:16.771Z,102087.34
2022-09-22T02:02:27.308Z,102091.81
2022-09-22T02:07:33.931Z,102091.25
2022-09-22T02:12:36.153Z,102086.19
2022-09-22T02:17:39.761Z,102096.16
2022-09-22T02:22:41.970Z,102091.84
2022-09-22T02:27:46.686Z,102101.25
2022-09-22T02:32:52.957Z,102098.47
2022-09-22T02:38:02.760Z,102102.25
2022-09-22T02:43:10.955Z,102101.84
2022-09-22T02:48:20.005Z,102098.88
2022-09-22T02:53:22.189Z,102098.28
2022-09-22T02:58:24.331Z,102088.38
2022-09-22T03:03:27.657Z,102089.81
2022-09-22T03:08:29.319Z,102083.69
2022-09-22T03:13:30.958Z,102082.69
2022-09-22T03:18:34.258Z,102083.16
2022-09-22T03:23:36.520Z,102094.19
2022-09-22T03:28:38.573Z,102083.06
2022-09-22T03:33:41.929Z,102085.75
2022-09-22T03:38:43.809Z,102093.38
2022-09-22T03:43:45.935Z,102096.81
2022-09-22T03:48:49.159Z,102091.16
2022-09-22T03:53:51.129Z,102096.44
2022-09-22T03:58:53.122Z,102083.78
2022-09-22T04:03:56.469Z,102085.47
2022-09-22T04:08:58.474Z,102089.38
2022-09-22T04:14:00.159Z,102084.09
2022-09-22T04:19:03.899Z,102084.81
2022-09-22T04:24:06.522Z,102085.72
2022-09-22T04:29:08.631Z,102085.94
2022-09-22T04:34:12.206Z,102085.69
2022-09-22T04:39:14.153Z,102088.72
2022-09-22T04:44:16.120Z,102092.41
2022-09-22T04:49:19.136Z,102093.00
2022-09-22T04:54:21.106Z,102087.00
2022-09-22T04:59:22.876Z,102100.03
2022-09-22T05:04:25.831Z,102095.91
2022-09-22T05:09:27.452Z,102105.41
2022-09-22T05:14:29.080Z,102091.41
2022-09-22T05:19:32.144Z,102096.72
2022-09-22T05:24:34.439Z,102109.19
2022-09-22T05:29:35.999Z,102096.91
2022-09-22T05:34:39.280Z,102106.78
2022-09-22T05:39:40.866Z,102101.81
2022-09-22T05:44:42.478Z,102104.38
2022-09-22T05:49:46.015Z,102112.69
2022-09-22T05:54:48.013Z,102107.88
2022-09-22T05:59:49.643Z,102109.97
2022-09-22T06:04:53.252Z,102106.09
2022-09-22T06:09:55.144Z,102105.97
2022-09-22T06:14:56.813Z,102104.06
2022-09-22T06:20:00.145Z,102107.75
2022-09-22T06:25:02.345Z,102114.41
2022-09-22T06:30:04.636Z,102115.25
2022-09-22T06:35:08.541Z,102118.63
2022-09-22T06:40:15.284Z,102119.97
2022-09-22T06:45:18.857Z,102120.69
2022-09-22T06:50:21.787Z,102118.41
2022-09-22T06:55:23.737Z,102114.56
2022-09-22T07:00:25.671Z,102121.38
2022-09-22T07:05:28.738Z,102113.94
2022-09-22T07:10:30.371Z,102110.03
2022-09-22T07:15:32.480Z,102106.81
2022-09-22T07:20:35.434Z,102109.88
2022-09-22T07:25:37.242Z,102113.75
2022-09-22T07:30:39.521Z,102106.69
2022-09-22T07:35:42.945Z,102112.16
2022-09-22T07:40:54.494Z,102103.38
2022-09-22T07:45:56.360Z,102109.69
2022-09-22T07:50:59.358Z,102112.47
2022-09-22T07:56:07.511Z,102114.47
2022-09-22T08:01:10.317Z,102118.09
2022-09-22T08:06:16.032Z,102119.94
2022-09-22T08:11:19.884Z,102125.34
2022-09-22T08:16:23.014Z,102118.25
2022-09-22T08:21:27.703Z,102120.19
2022-09-22T08:26:29.592Z,102116.66
2022-09-22T08:31:32.573Z,102117.59
2022-09-22T08:36:37.581Z,102112.31
2022-09-22T08:41:49.195Z,102129.19
2022-09-22T08:46:53.491Z,102118.53
2022-09-22T08:52:03.284Z,102122.06
2022-09-22T08:57:27.650Z,102120.31
2022-09-22T09:02:38.219Z,102114.91
2022-09-22T09:07:50.038Z,102120.31
2022-09-22T09:13:10.054Z,102122.06
2022-09-22T09:18:16.230Z,102119.44
2022-09-22T09:25:21.868Z,102119.41
2022-09-22T09:28:50.582Z,102117.66
2022-09-22T09:33:57.679Z,102121.44
2022-09-22T09:39:13.268Z,102101.28
2022-09-22T09:44:20.333Z,102100.81
2022-09-22T09:49:22.754Z,102100.19
2022-09-22T09:54:27.031Z,102100.75
2022-09-22T09:59:29.372Z,102092.25
2022-09-22T10:04:34.098Z,102091.00
2022-09-22T10:09:37.248Z,102086.34
2022-09-22T10:14:39.087Z,102098.88
2022-09-22T10:19:40.830Z,102091.44
2022-09-22T10:24:53.767Z,102084.97
2022-09-22T10:30:22.142Z,102080.34
2022-09-22T10:35:28.495Z,102075.97
2022-09-22T10:40:31.706Z,102084.47
2022-09-22T10:45:42.112Z,102075.00
2022-09-22T10:50:55.516Z,102072.50
2022-09-22T10:56:07.639Z,102084.38
2022-09-22T11:01:29.280Z,102075.09
2022-09-22T11:06:43.142Z,102068.34
2022-09-22T11:11:53.539Z,102071.59
2022-09-22T11:17:10.751Z,102061.53
2022-09-22T11:22:26.345Z,102055.75
2022-09-22T11:27:45.982Z,102048.16
2022-09-22T11:33:21.843Z,102043.75
2022-09-22T11:39:05.261Z,102034.78
2022-09-22T11:44:34.289Z,102036.75
2022-09-22T11:49:54.176Z,102038.94
2022-09-22T11:55:20.547Z,102025.75
2022-09-22T12:00:25.890Z,102023.19
2022-09-22T12:05:31.991Z,102021.88
2022-09-22T12:10:35.541Z,102007.78
2022-09-22T12:15:45.068Z,102013.75
2022-09-22T12:20:57.547Z,102005.53
2022-09-22T12:26:04.098Z,101994.06
2022-09-22T12:31:09.343Z,101996.94
2022-09-22T12:36:11.368Z,102002.28
2022-09-22T12:41:18.675Z,101984.59
2022-09-22T12:46:26.017Z,101982.66
2022-09-22T12:51:32.668Z,101993.38
2022-09-22T12:56:45.574Z,101987.66
2022-09-22T13:02:26.822Z,101979.38
2022-09-22T13:07:35.045Z,101977.41
2022-09-22T13:12:36.703Z,101970.56
2022-09-22T13:17:45.143Z,101966.88
2022-09-22T13:22:46.907Z,101965.59
2022-09-22T13:27:49.083Z,101968.75
2022-09-22T13:32:54.362Z,101963.84
2022-09-22T13:38:00.038Z,101964.63
2022-09-22T13:43:10.179Z,101957.75
2022-09-22T13:48:16.939Z,101953.69
2022-09-22T13:53:21.013Z,101945.59
2022-09-22T13:58:29.012Z,101936.75
2022-09-22T14:03:36.998Z,101930.75
2022-09-22T14:08:39.558Z,101939.91
2022-09-22T14:13:44.452Z,101933.72
2022-09-22T14:18:50.703Z,101936.59
2022-09-22T14:23:52.962Z,101935.81
2022-09-22T14:28:56.558Z,101935.13
2022-09-22T14:34:02.148Z,101932.59
2022-09-22T14:39:09.938Z,101930.03
2022-09-22T14:44:35.457Z,101925.63
2022-09-22T14:49:40.939Z,101930.16
2022-09-22T14:54:43.629Z,101924.88
2022-09-22T14:59:49.535Z,101916.09
2022-09-22T15:04:52.996Z,101913.44
2022-09-22T15:09:57.769Z,101911.69
2022-09-22T15:14:59.904Z,101907.44
2022-09-22T15:20:03.335Z,101905.69
2022-09-22T15:25:05.900Z,101896.03
2022-09-22T15:30:12.847Z,101890.88
2022-09-22T15:35:17.121Z,101891.84
2022-09-22T15:40:22.022Z,101894.56
2022-09-22T15:45:23.941Z,101890.09
2022-09-22T15:50:29.228Z,101883.97
2022-09-22T15:55:31.022Z,101894.69
2022-09-22T16:00:33.203Z,101892.06
2022-09-22T16:05:36.171Z,101896.56
2022-09-22T16:10:38.411Z,101889.44
2022-09-22T16:15:40.418Z,101884.13
2022-09-22T16:20:43.381Z,101873.53
2022-09-22T16:25:45.327Z,101873.53
2022-09-22T16:30:47.572Z,101871.72
2022-09-22T16:35:51.950Z,101872.63
2022-09-22T16:41:00.549Z,101867.25
2022-09-22T16:46:02.518Z,101876.91
2022-09-22T16:51:06.105Z,101874.16
2022-09-22T16:56:08.269Z,101880.25
2022-09-22T17:01:10.510Z,101879.22
2022-09-22T17:06:15.519Z,101880.81
2022-09-22T17:11:18.218Z,101883.25
2022-09-22T17:16:22.894Z,101876.00
2022-09-22T17:21:29.303Z,101872.28
2022-09-22T17:26:36.609Z,101868.56
2022-09-22T17:31:38.659Z,101864.00
2022-09-22T17:36:41.716Z,101877.00
2022-09-22T17:41:44.501Z,101870.56
2022-09-22T17:46:46.667Z,101862.44
2022-09-22T17:51:50.517Z,101869.22
2022-09-22T17:56:52.126Z,101863.78
2022-09-22T18:01:54.126Z,101864.44
2022-09-22T18:06:57.913Z,101868.72
2022-09-22T18:12:00.203Z,101871.19
2022-09-22T18:17:01.861Z,101871.88
2022-09-22T18:22:06.225Z,101880.47
2022-09-22T18:27:07.863Z,101883.06
2022-09-22T18:32:09.654Z,101880.19
2022-09-22T18:37:13.091Z,101873.56
2022-09-22T18:42:15.056Z,101867.38
2022-09-22T18:47:18.962Z,101863.66
2022-09-22T18:52:22.410Z,101864.31
2022-09-22T18:57:24.429Z,101875.56
2022-09-22T19:02:26.483Z,101870.91
2022-09-22T19:07:30.199Z,101881.41
2022-09-22T19:12:31.822Z,101874.09
2022-09-22T19:17:33.473Z,101876.47
2022-09-22T19:22:36.772Z,101885.78
2022-09-22T19:27:38.933Z,101888.34
2022-09-22T19:32:41.715Z,101887.22
2022-09-22T19:37:44.950Z,101887.91
2022-09-22T19:42:47.272Z,101886.84
2022-09-22T19:47:49.024Z,101874.28
2022-09-22T19:52:52.532Z,101881.97
2022-09-22T19:57:54.440Z,101880.97
2022-09-22T20:02:57.314Z,101873.69
2022-09-22T20:08:00.678Z,101869.84
2022-09-22T20:13:03.531Z,101868.84
2022-09-22T20:18:05.399Z,101866.97
2022-09-22T20:23:09.627Z,101869.31
2022-09-22T20:28:11.307Z,101867.47
2022-09-22T20:33:18.626Z,101871.50
2022-09-22T20:38:21.787Z,101857.25
2022-09-22T20:43:23.675Z,101874.66
2022-09-22T20:48:25.327Z,101866.44
2022-09-22T20:53:28.360Z,101872.53
2022-09-22T20:58:31.311Z,101867.00
2022-09-22T21:03:33.062Z,101863.34
2022-09-22T21:08:39.470Z,101859.28
2022-09-22T21:13:41.722Z,101865.47
2022-09-22T21:18:43.976Z,101858.25
2022-09-22T21:23:47.166Z,101859.88
2022-09-22T21:28:50.711Z,101871.22
2022-09-22T21:33:52.816Z,101871.94
2022-09-22T21:38:58.029Z,101867.53
2022-09-22T21:44:00.499Z,101866.16
2022-09-22T21:49:04.712Z,101860.72
2022-09-22T21:54:11.285Z,101859.63
2022-09-22T21:59:14.307Z,101862.94
2022-09-22T22:04:16.572Z,101861.78
2022-09-22T22:09:22.169Z,101859.78
2022-09-22T22:14:26.122Z,101868.19
2022-09-22T22:19:27.789Z,101858.38
2022-09-22T22:24:31.268Z,101858.25
2022-09-22T22:29:34.448Z,101860.16
2022-09-22T22:34:36.762Z,101851.28
2022-09-22T22:39:40.070Z,101854.38
2022-09-22T22:44:42.299Z,101856.81
2022-09-22T22:49:44.212Z,101848.69
2022-09-22T22:54:47.480Z,101859.25
2022-09-22T22:59:49.340Z,101856.50
2022-09-22T23:04:51.709Z,101849.09
2022-09-22T23:09:54.814Z,101848.28
2022-09-22T23:14:56.735Z,101844.66
2022-09-22T23:19:58.750Z,101845.28
2022-09-22T23:25:02.276Z,101844.00
2022-09-22T23:30:04.699Z,101837.22
2022-09-22T23:35:07.458Z,101835.03
2022-09-22T23:40:11.441Z,101820.41
2022-09-22T23:45:13.638Z,101817.53
2022-09-22T23:50:15.767Z,101807.91
2022-09-22T23:55:19.187Z,101811.00
